Aviation Digital Data Service (ADDS)

Output produced by METARs form (1755 UTC 20 January 2019)
found at http://www.aviationweather.gov/metar/data/
 
TAF TBPB 201700Z 2018/2118 10016KT 9999 SCT020